sensor_id;sensor_type;location;lat;lon;timestamp;P1;P2;P0
70520;PMS5003;58442;52.716;23.560;2022-12-11T00:00:45;17;15;7
70520;PMS5003;58442;52.716;23.560;2022-12-11T00:02:46;13;12;6
70520;PMS5003;58442;52.716;23.560;2022-12-11T00:04:58;19;18;9
70520;PMS5003;58442;52.716;23.560;2022-12-11T00:06:59;16;16;8
70520;PMS5003;58442;52.716;23.560;2022-12-11T00:09:00;17;15;8
70520;PMS5003;58442;52.716;23.560;2022-12-11T00:11:01;23;14;6
70520;PMS5003;58442;52.716;23.560;2022-12-11T00:13:13;12;11;5
70520;PMS5003;58442;52.716;23.560;2022-12-11T00:15:14;16;15;6
70520;PMS5003;58442;52.716;23.560;2022-12-11T00:17:15;19;18;8
70520;PMS5003;58442;52.716;23.560;2022-12-11T00:19:16;26;15;7
70520;PMS5003;58442;52.716;23.560;2022-12-11T00:21:28;10;9;6
70520;PMS5003;58442;52.716;23.560;2022-12-11T00:23:29;13;12;6
70520;PMS5003;58442;52.716;23.560;2022-12-11T00:25:30;13;13;6
70520;PMS5003;58442;52.716;23.560;2022-12-11T00:27:31;10;10;5
70520;PMS5003;58442;52.716;23.560;2022-12-11T00:29:43;13;13;7
70520;PMS5003;58442;52.716;23.560;2022-12-11T00:31:44;16;15;7
70520;PMS5003;58442;52.716;23.560;2022-12-11T00:33:45;14;13;7
70520;PMS5003;58442;52.716;23.560;2022-12-11T00:35:50;16;15;6
70520;PMS5003;58442;52.716;23.560;2022-12-11T00:37:58;11;7;5
70520;PMS5003;58442;52.716;23.560;2022-12-11T00:39:59;14;13;6
70520;PMS5003;58442;52.716;23.560;2022-12-11T00:42:00;16;13;7
70520;PMS5003;58442;52.716;23.560;2022-12-11T00:44:01;10;10;4
70520;PMS5003;58442;52.716;23.560;2022-12-11T00:46:13;14;13;7
70520;PMS5003;58442;52.716;23.560;2022-12-11T00:48:14;17;17;7
70520;PMS5003;58442;52.716;23.560;2022-12-11T00:50:15;9;8;5
70520;PMS5003;58442;52.716;23.560;2022-12-11T00:52:16;15;14;7
70520;PMS5003;58442;52.716;23.560;2022-12-11T00:54:28;19;16;6
70520;PMS5003;58442;52.716;23.560;2022-12-11T00:56:29;15;13;6
70520;PMS5003;58442;52.716;23.560;2022-12-11T00:58:30;10;9;5
70520;PMS5003;58442;52.716;23.560;2022-12-11T01:00:31;14;13;5
70520;PMS5003;58442;52.716;23.560;2022-12-11T01:02:43;14;13;6
70520;PMS5003;58442;52.716;23.560;2022-12-11T01:04:44;10;10;5
70520;PMS5003;58442;52.716;23.560;2022-12-11T01:06:45;14;13;7
70520;PMS5003;58442;52.716;23.560;2022-12-11T01:08:46;10;10;5
70520;PMS5003;58442;52.716;23.560;2022-12-11T01:11:02;13;13;6
70520;PMS5003;58442;52.716;23.560;2022-12-11T01:13:05;19;15;7
70520;PMS5003;58442;52.716;23.560;2022-12-11T01:15:06;11;11;6
70520;PMS5003;58442;52.716;23.560;2022-12-11T01:17:08;16;16;5
70520;PMS5003;58442;52.716;23.560;2022-12-11T01:19:13;13;13;7
70520;PMS5003;58442;52.716;23.560;2022-12-11T01:21:14;9;8;5
70520;PMS5003;58442;52.716;23.560;2022-12-11T01:23:15;8;8;5
70520;PMS5003;58442;52.716;23.560;2022-12-11T01:25:17;14;14;9
70520;PMS5003;58442;52.716;23.560;2022-12-11T01:27:28;11;11;4
70520;PMS5003;58442;52.716;23.560;2022-12-11T01:29:29;11;9;6
70520;PMS5003;58442;52.716;23.560;2022-12-11T01:31:30;15;13;5
70520;PMS5003;58442;52.716;23.560;2022-12-11T01:33:32;17;15;9
70520;PMS5003;58442;52.716;23.560;2022-12-11T01:35:43;16;16;6
70520;PMS5003;58442;52.716;23.560;2022-12-11T01:37:44;13;11;7
70520;PMS5003;58442;52.716;23.560;2022-12-11T01:39:46;16;13;8
70520;PMS5003;58442;52.716;23.560;2022-12-11T01:41:47;7;7;4
70520;PMS5003;58442;52.716;23.560;2022-12-11T01:46:20;13;13;6
70520;PMS5003;58442;52.716;23.560;2022-12-11T01:48:21;9;9;5
70520;PMS5003;58442;52.716;23.560;2022-12-11T01:50:25;11;9;6
70520;PMS5003;58442;52.716;23.560;2022-12-11T01:52:28;15;14;7
70520;PMS5003;58442;52.716;23.560;2022-12-11T01:54:35;9;9;5
70520;PMS5003;58442;52.716;23.560;2022-12-11T01:56:36;11;11;6
70520;PMS5003;58442;52.716;23.560;2022-12-11T01:58:41;16;10;4
70520;PMS5003;58442;52.716;23.560;2022-12-11T02:00:51;10;9;4
70520;PMS5003;58442;52.716;23.560;2022-12-11T02:02:53;12;11;7
70520;PMS5003;58442;52.716;23.560;2022-12-11T02:04:54;16;13;6
70520;PMS5003;58442;52.716;23.560;2022-12-11T02:06:56;13;13;7
70520;PMS5003;58442;52.716;23.560;2022-12-11T02:08:57;17;14;6
70520;PMS5003;58442;52.716;23.560;2022-12-11T02:11:07;10;10;6
70520;PMS5003;58442;52.716;23.560;2022-12-11T02:13:15;9;9;5
70520;PMS5003;58442;52.716;23.560;2022-12-11T02:15:34;15;15;6
70520;PMS5003;58442;52.716;23.560;2022-12-11T02:22:00;11;11;7
70520;PMS5003;58442;52.716;23.560;2022-12-11T02:24:30;10;9;5
70520;PMS5003;58442;52.716;23.560;2022-12-11T02:28:57;14;14;7
70520;PMS5003;58442;52.716;23.560;2022-12-11T02:31:22;10;9;6
70520;PMS5003;58442;52.716;23.560;2022-12-11T02:33:20;15;13;6
70520;PMS5003;58442;52.716;23.560;2022-12-11T02:37:40;11;11;4
70520;PMS5003;58442;52.716;23.560;2022-12-11T02:39:44;11;11;5
70520;PMS5003;58442;52.716;23.560;2022-12-11T02:41:49;12;12;5
70520;PMS5003;58442;52.716;23.560;2022-12-11T02:43:51;15;15;7
70520;PMS5003;58442;52.716;23.560;2022-12-11T02:45:55;16;15;8
70520;PMS5003;58442;52.716;23.560;2022-12-11T02:48:00;16;15;5
70520;PMS5003;58442;52.716;23.560;2022-12-11T02:50:05;14;14;5
70520;PMS5003;58442;52.716;23.560;2022-12-11T02:52:11;13;13;6
70520;PMS5003;58442;52.716;23.560;2022-12-11T02:54:19;17;15;8
70520;PMS5003;58442;52.716;23.560;2022-12-11T02:56:32;12;11;5
70520;PMS5003;58442;52.716;23.560;2022-12-11T02:58:45;17;16;8
70520;PMS5003;58442;52.716;23.560;2022-12-11T03:00:58;12;12;7
70520;PMS5003;58442;52.716;23.560;2022-12-11T03:03:00;9;9;4
70520;PMS5003;58442;52.716;23.560;2022-12-11T03:05:03;13;11;8
70520;PMS5003;58442;52.716;23.560;2022-12-11T03:09:16;33;15;8
70520;PMS5003;58442;52.716;23.560;2022-12-11T03:11:17;14;14;8
70520;PMS5003;58442;52.716;23.560;2022-12-11T03:13:18;17;14;8
70520;PMS5003;58442;52.716;23.560;2022-12-11T03:15:22;21;17;7
70520;PMS5003;58442;52.716;23.560;2022-12-11T03:22:15;13;13;8
70520;PMS5003;58442;52.716;23.560;2022-12-11T03:26:55;14;12;6
70520;PMS5003;58442;52.716;23.560;2022-12-11T03:29:03;12;10;6
70520;PMS5003;58442;52.716;23.560;2022-12-11T03:31:14;13;12;5
70520;PMS5003;58442;52.716;23.560;2022-12-11T03:33:26;15;11;6
70520;PMS5003;58442;52.716;23.560;2022-12-11T03:35:33;8;8;6
70520;PMS5003;58442;52.716;23.560;2022-12-11T03:37:40;13;13;6
70520;PMS5003;58442;52.716;23.560;2022-12-11T03:39:45;9;9;5
70520;PMS5003;58442;52.716;23.560;2022-12-11T03:41:49;12;12;5
70520;PMS5003;58442;52.716;23.560;2022-12-11T03:43:54;12;11;6
70520;PMS5003;58442;52.716;23.560;2022-12-11T03:45:57;9;9;5
70520;PMS5003;58442;52.716;23.560;2022-12-11T03:48:00;9;9;3
70520;PMS5003;58442;52.716;23.560;2022-12-11T03:50:03;11;11;6
70520;PMS5003;58442;52.716;23.560;2022-12-11T03:52:09;9;9;4
70520;PMS5003;58442;52.716;23.560;2022-12-11T03:54:13;10;10;6
70520;PMS5003;58442;52.716;23.560;2022-12-11T03:56:16;12;11;5
70520;PMS5003;58442;52.716;23.560;2022-12-11T03:58:19;14;14;7
70520;PMS5003;58442;52.716;23.560;2022-12-11T04:00:20;17;16;6
70520;PMS5003;58442;52.716;23.560;2022-12-11T04:02:24;14;14;6
70520;PMS5003;58442;52.716;23.560;2022-12-11T04:04:25;9;9;6
70520;PMS5003;58442;52.716;23.560;2022-12-11T04:06:26;9;9;6
70520;PMS5003;58442;52.716;23.560;2022-12-11T04:08:27;11;11;4
70520;PMS5003;58442;52.716;23.560;2022-12-11T04:10:28;15;13;6
70520;PMS5003;58442;52.716;23.560;2022-12-11T04:12:29;16;14;6
70520;PMS5003;58442;52.716;23.560;2022-12-11T04:14:30;12;12;7
70520;PMS5003;58442;52.716;23.560;2022-12-11T04:16:43;17;12;6
70520;PMS5003;58442;52.716;23.560;2022-12-11T04:18:54;14;13;7
70520;PMS5003;58442;52.716;23.560;2022-12-11T04:21:16;12;12;6
70520;PMS5003;58442;52.716;23.560;2022-12-11T04:23:37;9;8;4
70520;PMS5003;58442;52.716;23.560;2022-12-11T04:26:05;10;9;5
70520;PMS5003;58442;52.716;23.560;2022-12-11T04:28:20;9;9;5
70520;PMS5003;58442;52.716;23.560;2022-12-11T04:30:23;13;11;3
70520;PMS5003;58442;52.716;23.560;2022-12-11T04:32:25;13;12;6
70520;PMS5003;58442;52.716;23.560;2022-12-11T04:34:26;8;8;5
70520;PMS5003;58442;52.716;23.560;2022-12-11T04:36:35;12;11;6
70520;PMS5003;58442;52.716;23.560;2022-12-11T04:38:37;8;8;4
70520;PMS5003;58442;52.716;23.560;2022-12-11T04:40:38;7;6;3
70520;PMS5003;58442;52.716;23.560;2022-12-11T04:42:39;11;11;5
70520;PMS5003;58442;52.716;23.560;2022-12-11T04:44:50;15;11;7
70520;PMS5003;58442;52.716;23.560;2022-12-11T04:46:51;13;13;7
70520;PMS5003;58442;52.716;23.560;2022-12-11T04:48:52;17;12;7
70520;PMS5003;58442;52.716;23.560;2022-12-11T04:50:53;13;13;6
70520;PMS5003;58442;52.716;23.560;2022-12-11T04:52:55;8;8;4
70520;PMS5003;58442;52.716;23.560;2022-12-11T04:54:57;14;13;5
70520;PMS5003;58442;52.716;23.560;2022-12-11T04:56:58;10;7;5
70520;PMS5003;58442;52.716;23.560;2022-12-11T04:59:01;12;11;5
70520;PMS5003;58442;52.716;23.560;2022-12-11T05:03:10;11;10;6
70520;PMS5003;58442;52.716;23.560;2022-12-11T05:05:11;13;12;7
70520;PMS5003;58442;52.716;23.560;2022-12-11T05:07:16;10;10;5
70520;PMS5003;58442;52.716;23.560;2022-12-11T05:09:17;10;10;4
70520;PMS5003;58442;52.716;23.560;2022-12-11T05:11:18;10;9;5
70520;PMS5003;58442;52.716;23.560;2022-12-11T05:13:19;12;12;5
70520;PMS5003;58442;52.716;23.560;2022-12-11T05:15:20;10;10;5
70520;PMS5003;58442;52.716;23.560;2022-12-11T05:17:21;17;14;5
70520;PMS5003;58442;52.716;23.560;2022-12-11T05:19:23;12;12;5
70520;PMS5003;58442;52.716;23.560;2022-12-11T05:21:26;15;11;5
70520;PMS5003;58442;52.716;23.560;2022-12-11T05:23:27;12;11;7
70520;PMS5003;58442;52.716;23.560;2022-12-11T05:25:28;15;13;7
70520;PMS5003;58442;52.716;23.560;2022-12-11T05:27:30;16;14;7
70520;PMS5003;58442;52.716;23.560;2022-12-11T05:29:41;15;14;8
70520;PMS5003;58442;52.716;23.560;2022-12-11T05:31:42;12;10;5
70520;PMS5003;58442;52.716;23.560;2022-12-11T05:33:44;14;13;4
70520;PMS5003;58442;52.716;23.560;2022-12-11T05:35:47;12;12;7
70520;PMS5003;58442;52.716;23.560;2022-12-11T05:37:56;9;9;8
70520;PMS5003;58442;52.716;23.560;2022-12-11T05:39:59;14;12;7
70520;PMS5003;58442;52.716;23.560;2022-12-11T05:42:00;10;9;4
70520;PMS5003;58442;52.716;23.560;2022-12-11T05:44:01;9;6;5
70520;PMS5003;58442;52.716;23.560;2022-12-11T05:46:12;14;10;5
70520;PMS5003;58442;52.716;23.560;2022-12-11T05:48:16;16;13;6
70520;PMS5003;58442;52.716;23.560;2022-12-11T05:50:17;14;14;7
70520;PMS5003;58442;52.716;23.560;2022-12-11T05:52:18;16;16;8
70520;PMS5003;58442;52.716;23.560;2022-12-11T05:54:26;15;13;8
70520;PMS5003;58442;52.716;23.560;2022-12-11T05:56:28;11;10;6
70520;PMS5003;58442;52.716;23.560;2022-12-11T05:58:32;20;15;8
70520;PMS5003;58442;52.716;23.560;2022-12-11T06:00:34;15;15;7
70520;PMS5003;58442;52.716;23.560;2022-12-11T06:02:41;13;13;7
70520;PMS5003;58442;52.716;23.560;2022-12-11T06:04:42;11;11;8
70520;PMS5003;58442;52.716;23.560;2022-12-11T06:06:43;14;12;7
70520;PMS5003;58442;52.716;23.560;2022-12-11T06:08:44;16;16;9
70520;PMS5003;58442;52.716;23.560;2022-12-11T06:10:56;10;8;5
70520;PMS5003;58442;52.716;23.560;2022-12-11T06:12:57;16;15;10
70520;PMS5003;58442;52.716;23.560;2022-12-11T06:14:58;11;11;7
70520;PMS5003;58442;52.716;23.560;2022-12-11T06:16:59;15;15;8
70520;PMS5003;58442;52.716;23.560;2022-12-11T06:19:12;17;14;8
70520;PMS5003;58442;52.716;23.560;2022-12-11T06:21:18;19;19;8
70520;PMS5003;58442;52.716;23.560;2022-12-11T06:23:22;16;14;9
70520;PMS5003;58442;52.716;23.560;2022-12-11T06:25:23;19;19;10
70520;PMS5003;58442;52.716;23.560;2022-12-11T06:27:26;13;12;6
70520;PMS5003;58442;52.716;23.560;2022-12-11T06:29:27;11;11;7
70520;PMS5003;58442;52.716;23.560;2022-12-11T06:31:28;14;14;9
70520;PMS5003;58442;52.716;23.560;2022-12-11T06:33:29;14;14;8
70520;PMS5003;58442;52.716;23.560;2022-12-11T06:35:41;15;14;8
70520;PMS5003;58442;52.716;23.560;2022-12-11T06:37:42;16;16;9
70520;PMS5003;58442;52.716;23.560;2022-12-11T06:39:43;18;15;9
70520;PMS5003;58442;52.716;23.560;2022-12-11T06:41:44;18;18;10
70520;PMS5003;58442;52.716;23.560;2022-12-11T06:43:46;14;14;7
70520;PMS5003;58442;52.716;23.560;2022-12-11T06:45:47;15;15;9
70520;PMS5003;58442;52.716;23.560;2022-12-11T06:47:48;13;13;7
70520;PMS5003;58442;52.716;23.560;2022-12-11T06:49:51;16;13;9
70520;PMS5003;58442;52.716;23.560;2022-12-11T06:51:53;17;17;9
70520;PMS5003;58442;52.716;23.560;2022-12-11T06:53:54;18;18;9
70520;PMS5003;58442;52.716;23.560;2022-12-11T06:56:00;22;21;11
70520;PMS5003;58442;52.716;23.560;2022-12-11T06:58:07;23;21;12
70520;PMS5003;58442;52.716;23.560;2022-12-11T07:00:09;17;13;7
70520;PMS5003;58442;52.716;23.560;2022-12-11T07:02:11;29;27;16
70520;PMS5003;58442;52.716;23.560;2022-12-11T07:04:14;17;17;10
70520;PMS5003;58442;52.716;23.560;2022-12-11T07:06:21;19;18;12
70520;PMS5003;58442;52.716;23.560;2022-12-11T07:08:24;15;14;4
70520;PMS5003;58442;52.716;23.560;2022-12-11T07:10:28;22;21;11
70520;PMS5003;58442;52.716;23.560;2022-12-11T07:12:29;32;23;11
70520;PMS5003;58442;52.716;23.560;2022-12-11T07:14:36;21;20;10
70520;PMS5003;58442;52.716;23.560;2022-12-11T07:16:37;17;17;10
70520;PMS5003;58442;52.716;23.560;2022-12-11T07:18:39;19;18;10
70520;PMS5003;58442;52.716;23.560;2022-12-11T07:20:42;25;20;11
70520;PMS5003;58442;52.716;23.560;2022-12-11T07:22:53;30;26;13
70520;PMS5003;58442;52.716;23.560;2022-12-11T07:24:54;26;21;10
70520;PMS5003;58442;52.716;23.560;2022-12-11T07:26:55;19;17;10
70520;PMS5003;58442;52.716;23.560;2022-12-11T07:28:56;25;19;4
70520;PMS5003;58442;52.716;23.560;2022-12-11T07:31:11;19;18;9
70520;PMS5003;58442;52.716;23.560;2022-12-11T07:33:29;35;27;11
70520;PMS5003;58442;52.716;23.560;2022-12-11T07:35:30;24;23;13
70520;PMS5003;58442;52.716;23.560;2022-12-11T07:37:34;31;23;12
70520;PMS5003;58442;52.716;23.560;2022-12-11T07:39:35;25;24;14
70520;PMS5003;58442;52.716;23.560;2022-12-11T07:41:45;22;22;12
70520;PMS5003;58442;52.716;23.560;2022-12-11T07:43:46;33;27;13
70520;PMS5003;58442;52.716;23.560;2022-12-11T07:45:47;20;18;9
70520;PMS5003;58442;52.716;23.560;2022-12-11T07:47:48;25;22;10
70520;PMS5003;58442;52.716;23.560;2022-12-11T07:49:49;14;14;4
70520;PMS5003;58442;52.716;23.560;2022-12-11T07:51:50;10;10;7
70520;PMS5003;58442;52.716;23.560;2022-12-11T07:53:52;20;20;11
70520;PMS5003;58442;52.716;23.560;2022-12-11T07:55:55;19;18;10
70520;PMS5003;58442;52.716;23.560;2022-12-11T07:57:58;16;15;8
70520;PMS5003;58442;52.716;23.560;2022-12-11T07:59:59;18;17;9
70520;PMS5003;58442;52.716;23.560;2022-12-11T08:02:00;21;21;11
70520;PMS5003;58442;52.716;23.560;2022-12-11T08:04:10;17;17;11
70520;PMS5003;58442;52.716;23.560;2022-12-11T08:06:15;14;14;8
70520;PMS5003;58442;52.716;23.560;2022-12-11T08:08:16;20;17;7
70520;PMS5003;58442;52.716;23.560;2022-12-11T08:10:18;23;22;12
70520;PMS5003;58442;52.716;23.560;2022-12-11T08:12:25;23;19;13
70520;PMS5003;58442;52.716;23.560;2022-12-11T08:14:26;19;16;9
70520;PMS5003;58442;52.716;23.560;2022-12-11T08:16:27;19;18;10
70520;PMS5003;58442;52.716;23.560;2022-12-11T08:18:29;21;21;12
70520;PMS5003;58442;52.716;23.560;2022-12-11T08:20:40;18;18;9
70520;PMS5003;58442;52.716;23.560;2022-12-11T08:22:41;24;18;10
70520;PMS5003;58442;52.716;23.560;2022-12-11T08:24:42;21;19;11
70520;PMS5003;58442;52.716;23.560;2022-12-11T08:26:43;22;20;12
70520;PMS5003;58442;52.716;23.560;2022-12-11T08:28:55;30;23;12
70520;PMS5003;58442;52.716;23.560;2022-12-11T08:30:57;24;21;10
70520;PMS5003;58442;52.716;23.560;2022-12-11T08:32:58;19;17;10
70520;PMS5003;58442;52.716;23.560;2022-12-11T08:34:59;20;19;12
70520;PMS5003;58442;52.716;23.560;2022-12-11T08:37:10;13;13;9
70520;PMS5003;58442;52.716;23.560;2022-12-11T08:39:12;25;22;8
70520;PMS5003;58442;52.716;23.560;2022-12-11T08:41:15;18;17;6
70520;PMS5003;58442;52.716;23.560;2022-12-11T08:43:17;16;16;10
70520;PMS5003;58442;52.716;23.560;2022-12-11T08:45:25;16;10;8
70520;PMS5003;58442;52.716;23.560;2022-12-11T08:47:26;21;21;11
70520;PMS5003;58442;52.716;23.560;2022-12-11T08:49:27;24;18;8
70520;PMS5003;58442;52.716;23.560;2022-12-11T08:51:28;18;17;11
70520;PMS5003;58442;52.716;23.560;2022-12-11T08:53:40;25;22;11
70520;PMS5003;58442;52.716;23.560;2022-12-11T08:55:42;22;22;13
70520;PMS5003;58442;52.716;23.560;2022-12-11T08:57:43;17;16;10
70520;PMS5003;58442;52.716;23.560;2022-12-11T08:59:44;21;18;9
70520;PMS5003;58442;52.716;23.560;2022-12-11T09:01:55;21;21;11
70520;PMS5003;58442;52.716;23.560;2022-12-11T09:03:56;15;14;7
70520;PMS5003;58442;52.716;23.560;2022-12-11T09:05:58;16;15;9
70520;PMS5003;58442;52.716;23.560;2022-12-11T09:07:59;25;24;13
70520;PMS5003;58442;52.716;23.560;2022-12-11T09:10:00;22;20;11
70520;PMS5003;58442;52.716;23.560;2022-12-11T09:12:01;24;22;10
70520;PMS5003;58442;52.716;23.560;2022-12-11T09:14:04;19;13;8
70520;PMS5003;58442;52.716;23.560;2022-12-11T09:16:06;15;15;10
70520;PMS5003;58442;52.716;23.560;2022-12-11T09:18:13;20;20;12
70520;PMS5003;58442;52.716;23.560;2022-12-11T09:20:14;22;17;9
70520;PMS5003;58442;52.716;23.560;2022-12-11T09:22:15;14;13;6
70520;PMS5003;58442;52.716;23.560;2022-12-11T09:24:21;21;18;9
70520;PMS5003;58442;52.716;23.560;2022-12-11T09:26:22;18;17;12
70520;PMS5003;58442;52.716;23.560;2022-12-11T09:28:24;21;19;10
70520;PMS5003;58442;52.716;23.560;2022-12-11T09:30:48;19;15;8
70520;PMS5003;58442;52.716;23.560;2022-12-11T09:32:50;30;21;10
70520;PMS5003;58442;52.716;23.560;2022-12-11T09:34:52;17;16;9
70520;PMS5003;58442;52.716;23.560;2022-12-11T09:37:03;15;14;7
70520;PMS5003;58442;52.716;23.560;2022-12-11T09:39:05;22;20;9
70520;PMS5003;58442;52.716;23.560;2022-12-11T09:45:37;13;13;8
70520;PMS5003;58442;52.716;23.560;2022-12-11T09:47:40;12;12;7
70520;PMS5003;58442;52.716;23.560;2022-12-11T09:49:43;13;13;10
70520;PMS5003;58442;52.716;23.560;2022-12-11T09:53:59;14;11;6
70520;PMS5003;58442;52.716;23.560;2022-12-11T09:56:06;16;16;10
70520;PMS5003;58442;52.716;23.560;2022-12-11T10:00:39;14;14;7
70520;PMS5003;58442;52.716;23.560;2022-12-11T10:09:29;20;18;9
70520;PMS5003;58442;52.716;23.560;2022-12-11T10:16:17;19;19;11
70520;PMS5003;58442;52.716;23.560;2022-12-11T10:18:31;14;13;9
70520;PMS5003;58442;52.716;23.560;2022-12-11T10:20:34;16;16;9
70520;PMS5003;58442;52.716;23.560;2022-12-11T10:22:42;16;16;9
70520;PMS5003;58442;52.716;23.560;2022-12-11T10:24:50;16;16;8
70520;PMS5003;58442;52.716;23.560;2022-12-11T10:26:57;19;17;10
70520;PMS5003;58442;52.716;23.560;2022-12-11T10:29:12;16;14;8
70520;PMS5003;58442;52.716;23.560;2022-12-11T10:31:19;19;17;11
70520;PMS5003;58442;52.716;23.560;2022-12-11T10:33:33;14;13;8
70520;PMS5003;58442;52.716;23.560;2022-12-11T10:37:54;20;18;10
70520;PMS5003;58442;52.716;23.560;2022-12-11T10:40:01;15;14;8
70520;PMS5003;58442;52.716;23.560;2022-12-11T10:42:05;19;19;10
70520;PMS5003;58442;52.716;23.560;2022-12-11T10:44:14;12;12;9
70520;PMS5003;58442;52.716;23.560;2022-12-11T10:46:21;15;14;10
70520;PMS5003;58442;52.716;23.560;2022-12-11T10:48:27;13;13;9
70520;PMS5003;58442;52.716;23.560;2022-12-11T10:50:39;16;14;7
70520;PMS5003;58442;52.716;23.560;2022-12-11T10:52:43;17;14;9
70520;PMS5003;58442;52.716;23.560;2022-12-11T10:54:45;22;22;12
70520;PMS5003;58442;52.716;23.560;2022-12-11T10:56:51;21;20;10
70520;PMS5003;58442;52.716;23.560;2022-12-11T10:58:55;18;15;9
70520;PMS5003;58442;52.716;23.560;2022-12-11T11:00:59;20;18;13
70520;PMS5003;58442;52.716;23.560;2022-12-11T11:03:18;18;17;11
70520;PMS5003;58442;52.716;23.560;2022-12-11T11:07:33;21;19;11
70520;PMS5003;58442;52.716;23.560;2022-12-11T11:09:35;19;19;11
70520;PMS5003;58442;52.716;23.560;2022-12-11T11:11:36;14;12;7
70520;PMS5003;58442;52.716;23.560;2022-12-11T11:13:38;15;15;10
70520;PMS5003;58442;52.716;23.560;2022-12-11T11:15:39;14;13;8
70520;PMS5003;58442;52.716;23.560;2022-12-11T11:17:49;12;12;7
70520;PMS5003;58442;52.716;23.560;2022-12-11T11:19:52;11;11;5
70520;PMS5003;58442;52.716;23.560;2022-12-11T11:22:00;10;9;9
70520;PMS5003;58442;52.716;23.560;2022-12-11T11:24:05;14;14;9
70520;PMS5003;58442;52.716;23.560;2022-12-11T11:26:06;11;11;7
70520;PMS5003;58442;52.716;23.560;2022-12-11T11:28:15;10;10;7
70520;PMS5003;58442;52.716;23.560;2022-12-11T11:30:25;11;9;6
70520;PMS5003;58442;52.716;23.560;2022-12-11T11:32:31;8;8;6
70520;PMS5003;58442;52.716;23.560;2022-12-11T11:34:36;11;10;7
70520;PMS5003;58442;52.716;23.560;2022-12-11T11:41:42;12;12;7
70520;PMS5003;58442;52.716;23.560;2022-12-11T11:43:52;10;9;7
70520;PMS5003;58442;52.716;23.560;2022-12-11T11:45:58;10;10;5
70520;PMS5003;58442;52.716;23.560;2022-12-11T11:50:19;11;11;7
70520;PMS5003;58442;52.716;23.560;2022-12-11T11:54:41;9;9;5
70520;PMS5003;58442;52.716;23.560;2022-12-11T11:56:53;15;14;9
70520;PMS5003;58442;52.716;23.560;2022-12-11T12:01:15;14;12;9
70520;PMS5003;58442;52.716;23.560;2022-12-11T12:03:18;15;13;7
70520;PMS5003;58442;52.716;23.560;2022-12-11T12:05:24;8;8;5
70520;PMS5003;58442;52.716;23.560;2022-12-11T12:07:48;9;9;6
70520;PMS5003;58442;52.716;23.560;2022-12-11T12:21:47;12;9;6
70520;PMS5003;58442;52.716;23.560;2022-12-11T12:28:24;11;11;7
70520;PMS5003;58442;52.716;23.560;2022-12-11T12:30:33;5;5;4
70520;PMS5003;58442;52.716;23.560;2022-12-11T12:34:59;11;10;7
70520;PMS5003;58442;52.716;23.560;2022-12-11T12:37:21;14;11;6
70520;PMS5003;58442;52.716;23.560;2022-12-11T12:42:03;14;14;6
70520;PMS5003;58442;52.716;23.560;2022-12-11T12:44:21;13;13;9
70520;PMS5003;58442;52.716;23.560;2022-12-11T12:46:31;12;12;7
70520;PMS5003;58442;52.716;23.560;2022-12-11T12:48:36;12;11;6
70520;PMS5003;58442;52.716;23.560;2022-12-11T12:50:42;16;15;9
70520;PMS5003;58442;52.716;23.560;2022-12-11T12:52:47;14;11;7
70520;PMS5003;58442;52.716;23.560;2022-12-11T12:54:51;13;13;7
70520;PMS5003;58442;52.716;23.560;2022-12-11T12:57:08;14;14;7
70520;PMS5003;58442;52.716;23.560;2022-12-11T13:01:21;14;13;6
70520;PMS5003;58442;52.716;23.560;2022-12-11T13:05:56;19;17;6
70520;PMS5003;58442;52.716;23.560;2022-12-11T13:08:00;13;13;8
70520;PMS5003;58442;52.716;23.560;2022-12-11T13:10:05;11;11;7
70520;PMS5003;58442;52.716;23.560;2022-12-11T13:12:13;8;7;5
70520;PMS5003;58442;52.716;23.560;2022-12-11T13:18:53;10;10;6
70520;PMS5003;58442;52.716;23.560;2022-12-11T13:20:54;13;13;9
70520;PMS5003;58442;52.716;23.560;2022-12-11T13:27:23;14;10;6
70520;PMS5003;58442;52.716;23.560;2022-12-11T13:29:34;9;8;5
70520;PMS5003;58442;52.716;23.560;2022-12-11T13:31:38;9;8;5
70520;PMS5003;58442;52.716;23.560;2022-12-11T13:33:50;6;6;5
70520;PMS5003;58442;52.716;23.560;2022-12-11T13:38:13;8;8;4
70520;PMS5003;58442;52.716;23.560;2022-12-11T13:40:21;6;6;3
70520;PMS5003;58442;52.716;23.560;2022-12-11T13:42:32;9;9;6
70520;PMS5003;58442;52.716;23.560;2022-12-11T13:44:38;9;8;6
70520;PMS5003;58442;52.716;23.560;2022-12-11T13:46:42;7;7;4
70520;PMS5003;58442;52.716;23.560;2022-12-11T13:51:00;8;8;4
70520;PMS5003;58442;52.716;23.560;2022-12-11T13:53:17;5;5;1
70520;PMS5003;58442;52.716;23.560;2022-12-11T13:55:16;6;6;4
70520;PMS5003;58442;52.716;23.560;2022-12-11T13:57:25;8;8;6
70520;PMS5003;58442;52.716;23.560;2022-12-11T13:59:32;5;5;4
70520;PMS5003;58442;52.716;23.560;2022-12-11T14:01:38;12;11;5
70520;PMS5003;58442;52.716;23.560;2022-12-11T14:03:40;10;9;5
70520;PMS5003;58442;52.716;23.560;2022-12-11T14:05:48;10;10;6
70520;PMS5003;58442;52.716;23.560;2022-12-11T14:07:53;3;3;2
70520;PMS5003;58442;52.716;23.560;2022-12-11T14:10:00;8;8;6
70520;PMS5003;58442;52.716;23.560;2022-12-11T14:12:14;4;4;3
70520;PMS5003;58442;52.716;23.560;2022-12-11T14:14:19;8;8;6
70520;PMS5003;58442;52.716;23.560;2022-12-11T14:16:25;9;9;4
70520;PMS5003;58442;52.716;23.560;2022-12-11T14:18:27;9;9;6
70520;PMS5003;58442;52.716;23.560;2022-12-11T14:20:31;8;8;6
70520;PMS5003;58442;52.716;23.560;2022-12-11T14:22:33;8;8;5
70520;PMS5003;58442;52.716;23.560;2022-12-11T14:24:34;8;8;5
70520;PMS5003;58442;52.716;23.560;2022-12-11T14:26:35;8;8;3
70520;PMS5003;58442;52.716;23.560;2022-12-11T14:28:44;5;5;3
70520;PMS5003;58442;52.716;23.560;2022-12-11T14:30:46;9;8;6
70520;PMS5003;58442;52.716;23.560;2022-12-11T14:32:49;9;9;6
70520;PMS5003;58442;52.716;23.560;2022-12-11T14:34:53;5;5;4
70520;PMS5003;58442;52.716;23.560;2022-12-11T14:36:59;13;13;7
70520;PMS5003;58442;52.716;23.560;2022-12-11T14:39:06;8;8;6
70520;PMS5003;58442;52.716;23.560;2022-12-11T14:43:27;8;8;5
70520;PMS5003;58442;52.716;23.560;2022-12-11T14:45:34;6;6;4
70520;PMS5003;58442;52.716;23.560;2022-12-11T14:47:40;8;8;6
70520;PMS5003;58442;52.716;23.560;2022-12-11T14:49:48;10;10;6
70520;PMS5003;58442;52.716;23.560;2022-12-11T14:51:58;10;9;6
70520;PMS5003;58442;52.716;23.560;2022-12-11T14:54:00;9;9;5
70520;PMS5003;58442;52.716;23.560;2022-12-11T14:56:07;11;9;5
70520;PMS5003;58442;52.716;23.560;2022-12-11T14:58:24;15;13;7
70520;PMS5003;58442;52.716;23.560;2022-12-11T15:00:27;18;16;8
70520;PMS5003;58442;52.716;23.560;2022-12-11T15:02:31;13;11;6
70520;PMS5003;58442;52.716;23.560;2022-12-11T15:04:33;21;17;6
70520;PMS5003;58442;52.716;23.560;2022-12-11T15:06:43;15;13;7